Accueil
METAR-TAF:

METAR-TAF

Aéroports :

Orlando Executive Airport

Orlando, Floride, États-Unis

latitude: 28-32-47N, longitude: 081-20-09W, altitude: 34 m

Observation

Le bulletin a été fait il y a 11 heures et 16 minutes, à 21:19 UTC
Vent 8 kt de nord-est avec des rafales jusqu'à 20 kt
Température 23°C
Humidité 83%
Pression 1017 hPa
Visibilité: 1.2 km
Nuages fragmentés à une hauteur de 1500 ft
Ciel couvert à une hauteur de 3900 ft
orage, forte pluie

METAR: KORL 282119Z 05008G20KT 3/4SM R07/1200V4000FT +TSRA BKN015 OVC039 23/20 A3004 RMK AO2 PK WND 28036/2106 WSHFT 2040 LTG DSNT ALQDS RAB2058 P0098 T02330200

Heure: 04:35 (08:35 UTC)


TAF: absent

Observations et prévisions météorologiques de plus de 4000 aéroports (messages METAR et TAF).

Les stations disponibles sont représentées par des disques jaunes et rouges sur la carte.

Passer la souris dessus pour voir le nom de la station.

Cliquer dessus pour voir les observations et prévisions météorologiques.

Pour changer de carte: cliquez sur les boutons verts avec une croix noire pour zoomer, sur le bouton vert avec un tiret pour effectuer un zoom arrière, ou sur les flèches vertes pour les cartes adjacentes.


METAR-TAF: